sensor_id;sensor_type;location;lat;lon;timestamp;temperature;humidity
26224;DHT22;14820;48.682;8.890;2023-03-04T00:47:36;-0.50;99.90
26224;DHT22;14820;48.682;8.890;2023-03-04T00:50:01;-0.50;99.90
26224;DHT22;14820;48.682;8.890;2023-03-04T00:52:27;-0.50;99.90
26224;DHT22;14820;48.682;8.890;2023-03-04T00:54:53;-0.50;99.90
26224;DHT22;14820;48.682;8.890;2023-03-04T00:57:18;-0.40;99.90
26224;DHT22;14820;48.682;8.890;2023-03-04T00:59:44;-0.40;99.90
26224;DHT22;14820;48.682;8.890;2023-03-04T01:02:10;-0.50;99.90
26224;DHT22;14820;48.682;8.890;2023-03-04T01:04:37;-0.50;99.90
26224;DHT22;14820;48.682;8.890;2023-03-04T01:07:03;-0.60;99.90
26224;DHT22;14820;48.682;8.890;2023-03-04T01:09:29;-0.60;99.90
26224;DHT22;14820;48.682;8.890;2023-03-04T01:11:55;-0.60;99.90
26224;DHT22;14820;48.682;8.890;2023-03-04T01:14:20;-0.60;99.90
26224;DHT22;14820;48.682;8.890;2023-03-04T01:16:47;-0.60;99.90
26224;DHT22;14820;48.682;8.890;2023-03-04T01:19:12;-0.60;99.90
26224;DHT22;14820;48.682;8.890;2023-03-04T01:21:38;-0.60;99.90
26224;DHT22;14820;48.682;8.890;2023-03-04T01:24:04;-0.60;99.90
26224;DHT22;14820;48.682;8.890;2023-03-04T01:26:30;-0.60;99.90
26224;DHT22;14820;48.682;8.890;2023-03-04T01:28:55;-0.70;99.90
26224;DHT22;14820;48.682;8.890;2023-03-04T01:31:21;-0.70;99.90
26224;DHT22;14820;48.682;8.890;2023-03-04T01:33:47;-0.70;99.90
26224;DHT22;14820;48.682;8.890;2023-03-04T01:36:12;-0.80;99.90
26224;DHT22;14820;48.682;8.890;2023-03-04T01:38:38;-0.80;99.90
26224;DHT22;14820;48.682;8.890;2023-03-04T01:41:04;-0.90;99.90
26224;DHT22;14820;48.682;8.890;2023-03-04T01:43:30;-1.00;99.90
26224;DHT22;14820;48.682;8.890;2023-03-04T01:45:57;-1.00;99.90
26224;DHT22;14820;48.682;8.890;2023-03-04T01:48:29;-1.00;99.90
26224;DHT22;14820;48.682;8.890;2023-03-04T01:50:56;-1.00;99.90
26224;DHT22;14820;48.682;8.890;2023-03-04T01:53:26;-0.90;99.90
26224;DHT22;14820;48.682;8.890;2023-03-04T01:55:55;-1.00;99.90
26224;DHT22;14820;48.682;8.890;2023-03-04T01:58:24;-1.00;99.90
26224;DHT22;14820;48.682;8.890;2023-03-04T02:00:50;-1.00;99.90
26224;DHT22;14820;48.682;8.890;2023-03-04T02:03:17;-1.00;99.90
26224;DHT22;14820;48.682;8.890;2023-03-04T02:05:50;-1.00;99.90
26224;DHT22;14820;48.682;8.890;2023-03-04T02:08:19;-1.00;99.90
26224;DHT22;14820;48.682;8.890;2023-03-04T02:10:45;-1.00;99.90
26224;DHT22;14820;48.682;8.890;2023-03-04T02:13:11;-0.90;99.90
26224;DHT22;14820;48.682;8.890;2023-03-04T02:15:38;-0.90;99.90
26224;DHT22;14820;48.682;8.890;2023-03-04T02:18:14;-1.00;99.90
26224;DHT22;14820;48.682;8.890;2023-03-04T02:26:33;-1.10;99.90
26224;DHT22;14820;48.682;8.890;2023-03-04T02:29:00;-1.20;99.90
26224;DHT22;14820;48.682;8.890;2023-03-04T02:31:33;-1.20;99.90
26224;DHT22;14820;48.682;8.890;2023-03-04T02:34:02;-1.30;99.90
26224;DHT22;14820;48.682;8.890;2023-03-04T02:36:29;-1.30;99.90
26224;DHT22;14820;48.682;8.890;2023-03-04T02:39:01;-1.30;99.90
26224;DHT22;14820;48.682;8.890;2023-03-04T02:41:29;-1.40;99.90
26224;DHT22;14820;48.682;8.890;2023-03-04T02:43:55;-1.40;99.90
26224;DHT22;14820;48.682;8.890;2023-03-04T02:46:21;-1.30;99.90
26224;DHT22;14820;48.682;8.890;2023-03-04T02:48:48;-1.30;99.90
26224;DHT22;14820;48.682;8.890;2023-03-04T02:51:14;-1.30;99.90
26224;DHT22;14820;48.682;8.890;2023-03-04T02:53:40;-1.30;99.90
26224;DHT22;14820;48.682;8.890;2023-03-04T02:56:06;-1.30;99.90
26224;DHT22;14820;48.682;8.890;2023-03-04T02:58:32;-1.30;99.90
26224;DHT22;14820;48.682;8.890;2023-03-04T03:00:58;-1.30;99.90
26224;DHT22;14820;48.682;8.890;2023-03-04T03:03:23;-1.20;99.90
26224;DHT22;14820;48.682;8.890;2023-03-04T03:05:49;-1.30;99.90
26224;DHT22;14820;48.682;8.890;2023-03-04T03:08:15;-1.30;99.90
26224;DHT22;14820;48.682;8.890;2023-03-04T03:10:40;-1.30;99.90
26224;DHT22;14820;48.682;8.890;2023-03-04T03:13:06;-1.30;99.90
26224;DHT22;14820;48.682;8.890;2023-03-04T03:15:32;-1.30;99.90
26224;DHT22;14820;48.682;8.890;2023-03-04T03:17:57;-1.30;99.90
26224;DHT22;14820;48.682;8.890;2023-03-04T03:20:23;-1.40;99.90
26224;DHT22;14820;48.682;8.890;2023-03-04T03:22:49;-1.40;99.90
26224;DHT22;14820;48.682;8.890;2023-03-04T03:25:16;-1.50;99.90
26224;DHT22;14820;48.682;8.890;2023-03-04T03:27:41;-1.60;99.90
26224;DHT22;14820;48.682;8.890;2023-03-04T03:30:09;-1.70;99.90
26224;DHT22;14820;48.682;8.890;2023-03-04T03:32:36;-1.70;99.90
26224;DHT22;14820;48.682;8.890;2023-03-04T03:35:02;-1.70;99.90
26224;DHT22;14820;48.682;8.890;2023-03-04T03:37:28;-1.70;99.90
26224;DHT22;14820;48.682;8.890;2023-03-04T03:39:54;-1.70;99.90
26224;DHT22;14820;48.682;8.890;2023-03-04T03:42:19;-1.70;99.90
26224;DHT22;14820;48.682;8.890;2023-03-04T03:44:45;-1.70;99.90
26224;DHT22;14820;48.682;8.890;2023-03-04T03:47:10;-1.70;99.90
26224;DHT22;14820;48.682;8.890;2023-03-04T03:49:36;-1.60;99.90
26224;DHT22;14820;48.682;8.890;2023-03-04T03:52:02;-1.60;99.90
26224;DHT22;14820;48.682;8.890;2023-03-04T03:54:27;-1.60;99.90
26224;DHT22;14820;48.682;8.890;2023-03-04T03:56:53;-1.60;99.90
26224;DHT22;14820;48.682;8.890;2023-03-04T03:59:19;-1.60;99.90
26224;DHT22;14820;48.682;8.890;2023-03-04T04:01:44;-1.70;99.90
26224;DHT22;14820;48.682;8.890;2023-03-04T04:04:10;-1.80;99.90
26224;DHT22;14820;48.682;8.890;2023-03-04T04:06:36;-1.80;99.90
26224;DHT22;14820;48.682;8.890;2023-03-04T04:09:01;-1.80;99.90
26224;DHT22;14820;48.682;8.890;2023-03-04T04:11:27;-1.80;99.90
26224;DHT22;14820;48.682;8.890;2023-03-04T04:13:53;-1.70;99.90
26224;DHT22;14820;48.682;8.890;2023-03-04T04:16:19;-1.70;99.90
26224;DHT22;14820;48.682;8.890;2023-03-04T04:18:44;-1.80;99.90
26224;DHT22;14820;48.682;8.890;2023-03-04T04:21:10;-1.80;99.90
26224;DHT22;14820;48.682;8.890;2023-03-04T04:23:35;-1.80;99.90
26224;DHT22;14820;48.682;8.890;2023-03-04T04:26:01;-1.90;99.90
26224;DHT22;14820;48.682;8.890;2023-03-04T04:28:27;-2.00;99.90
26224;DHT22;14820;48.682;8.890;2023-03-04T04:30:53;-2.10;99.90
26224;DHT22;14820;48.682;8.890;2023-03-04T04:33:18;-2.00;99.90
26224;DHT22;14820;48.682;8.890;2023-03-04T04:35:44;-2.10;99.90
26224;DHT22;14820;48.682;8.890;2023-03-04T04:38:10;-2.00;99.90
26224;DHT22;14820;48.682;8.890;2023-03-04T04:40:36;-2.10;99.90
26224;DHT22;14820;48.682;8.890;2023-03-04T04:43:02;-2.20;99.90
26224;DHT22;14820;48.682;8.890;2023-03-04T04:45:27;-2.20;99.90
26224;DHT22;14820;48.682;8.890;2023-03-04T04:47:54;-2.20;99.90
26224;DHT22;14820;48.682;8.890;2023-03-04T04:50:22;-2.30;99.90
26224;DHT22;14820;48.682;8.890;2023-03-04T04:52:48;-2.20;99.90
26224;DHT22;14820;48.682;8.890;2023-03-04T04:55:14;-2.20;99.90
26224;DHT22;14820;48.682;8.890;2023-03-04T04:57:40;-2.20;99.90
26224;DHT22;14820;48.682;8.890;2023-03-04T05:00:06;-2.20;99.90
26224;DHT22;14820;48.682;8.890;2023-03-04T05:02:32;-2.20;99.90
26224;DHT22;14820;48.682;8.890;2023-03-04T05:05:03;-2.20;99.90
26224;DHT22;14820;48.682;8.890;2023-03-04T05:07:28;-2.20;99.90
26224;DHT22;14820;48.682;8.890;2023-03-04T05:09:54;-2.20;99.90
26224;DHT22;14820;48.682;8.890;2023-03-04T05:12:20;-2.20;99.90
26224;DHT22;14820;48.682;8.890;2023-03-04T05:14:45;-2.20;99.90
26224;DHT22;14820;48.682;8.890;2023-03-04T05:17:11;-2.30;99.90
26224;DHT22;14820;48.682;8.890;2023-03-04T05:19:37;-2.30;99.90
26224;DHT22;14820;48.682;8.890;2023-03-04T05:22:02;-2.40;99.90
26224;DHT22;14820;48.682;8.890;2023-03-04T05:24:28;-2.40;99.90
26224;DHT22;14820;48.682;8.890;2023-03-04T05:26:54;-2.50;99.90
26224;DHT22;14820;48.682;8.890;2023-03-04T05:29:19;-2.40;99.90
26224;DHT22;14820;48.682;8.890;2023-03-04T05:31:45;-2.40;99.90
26224;DHT22;14820;48.682;8.890;2023-03-04T05:34:11;-2.30;99.90
26224;DHT22;14820;48.682;8.890;2023-03-04T05:36:36;-2.40;99.90
26224;DHT22;14820;48.682;8.890;2023-03-04T05:39:02;-2.40;99.90
26224;DHT22;14820;48.682;8.890;2023-03-04T05:41:28;-2.30;99.90
26224;DHT22;14820;48.682;8.890;2023-03-04T05:43:53;-2.40;99.90
26224;DHT22;14820;48.682;8.890;2023-03-04T05:46:21;-2.30;99.90
26224;DHT22;14820;48.682;8.890;2023-03-04T05:48:51;-2.30;99.90
26224;DHT22;14820;48.682;8.890;2023-03-04T05:51:17;-2.20;99.90
26224;DHT22;14820;48.682;8.890;2023-03-04T05:53:43;-2.30;99.90
26224;DHT22;14820;48.682;8.890;2023-03-04T05:56:11;-2.30;99.90
26224;DHT22;14820;48.682;8.890;2023-03-04T05:58:36;-2.30;99.90
26224;DHT22;14820;48.682;8.890;2023-03-04T06:01:03;-2.30;99.90
26224;DHT22;14820;48.682;8.890;2023-03-04T06:03:28;-2.40;99.90
26224;DHT22;14820;48.682;8.890;2023-03-04T06:05:54;-2.40;99.90
26224;DHT22;14820;48.682;8.890;2023-03-04T06:08:20;-2.30;99.90
26224;DHT22;14820;48.682;8.890;2023-03-04T06:10:46;-2.30;99.90
26224;DHT22;14820;48.682;8.890;2023-03-04T06:13:12;-2.30;99.90
26224;DHT22;14820;48.682;8.890;2023-03-04T06:15:38;-2.30;99.90
26224;DHT22;14820;48.682;8.890;2023-03-04T06:18:06;-2.40;99.90
26224;DHT22;14820;48.682;8.890;2023-03-04T06:20:31;-2.40;99.90
26224;DHT22;14820;48.682;8.890;2023-03-04T06:22:57;-2.40;99.90
26224;DHT22;14820;48.682;8.890;2023-03-04T06:25:23;-2.40;99.90
26224;DHT22;14820;48.682;8.890;2023-03-04T06:27:49;-2.40;99.90
26224;DHT22;14820;48.682;8.890;2023-03-04T06:30:15;-2.40;99.90
26224;DHT22;14820;48.682;8.890;2023-03-04T06:32:41;-2.40;99.90
26224;DHT22;14820;48.682;8.890;2023-03-04T06:35:10;-2.50;99.90
26224;DHT22;14820;48.682;8.890;2023-03-04T06:37:36;-2.40;99.90
26224;DHT22;14820;48.682;8.890;2023-03-04T06:40:02;-2.40;99.90
26224;DHT22;14820;48.682;8.890;2023-03-04T06:42:28;-2.40;99.90
26224;DHT22;14820;48.682;8.890;2023-03-04T06:44:54;-2.40;99.90
26224;DHT22;14820;48.682;8.890;2023-03-04T06:47:19;-2.30;99.90
26224;DHT22;14820;48.682;8.890;2023-03-04T06:49:45;-2.20;99.90
26224;DHT22;14820;48.682;8.890;2023-03-04T06:52:11;-2.10;99.90
26224;DHT22;14820;48.682;8.890;2023-03-04T06:54:38;-2.10;99.90
26224;DHT22;14820;48.682;8.890;2023-03-04T06:57:04;-2.10;99.90
26224;DHT22;14820;48.682;8.890;2023-03-04T06:59:29;-1.90;99.90
26224;DHT22;14820;48.682;8.890;2023-03-04T07:01:55;-2.00;99.90
26224;DHT22;14820;48.682;8.890;2023-03-04T07:04:21;-2.00;99.90
26224;DHT22;14820;48.682;8.890;2023-03-04T07:06:48;-2.00;99.90
26224;DHT22;14820;48.682;8.890;2023-03-04T07:09:14;-2.00;99.90
26224;DHT22;14820;48.682;8.890;2023-03-04T07:11:40;-1.90;99.90
26224;DHT22;14820;48.682;8.890;2023-03-04T07:14:05;-1.80;99.90
26224;DHT22;14820;48.682;8.890;2023-03-04T07:16:31;-1.80;99.90
26224;DHT22;14820;48.682;8.890;2023-03-04T07:18:57;-1.70;99.90
26224;DHT22;14820;48.682;8.890;2023-03-04T07:21:23;-1.60;99.90
26224;DHT22;14820;48.682;8.890;2023-03-04T07:23:55;-1.40;99.90
26224;DHT22;14820;48.682;8.890;2023-03-04T07:26:21;-1.40;99.90
26224;DHT22;14820;48.682;8.890;2023-03-04T07:28:47;-1.20;99.90
26224;DHT22;14820;48.682;8.890;2023-03-04T07:33:47;-1.20;99.90
26224;DHT22;14820;48.682;8.890;2023-03-04T07:36:13;-1.10;99.90
26224;DHT22;14820;48.682;8.890;2023-03-04T07:41:12;-1.00;99.90
26224;DHT22;14820;48.682;8.890;2023-03-04T07:43:47;-0.90;99.90
26224;DHT22;14820;48.682;8.890;2023-03-04T07:53:36;-0.80;99.90
26224;DHT22;14820;48.682;8.890;2023-03-04T07:56:04;-0.80;99.90
26224;DHT22;14820;48.682;8.890;2023-03-04T07:58:30;-0.80;99.90
26224;DHT22;14820;48.682;8.890;2023-03-04T08:00:56;-0.80;99.90
26224;DHT22;14820;48.682;8.890;2023-03-04T08:03:23;-0.80;99.90
26224;DHT22;14820;48.682;8.890;2023-03-04T08:05:49;-0.70;99.90
26224;DHT22;14820;48.682;8.890;2023-03-04T08:08:15;-0.70;99.90
26224;DHT22;14820;48.682;8.890;2023-03-04T08:10:41;-0.60;99.90
26224;DHT22;14820;48.682;8.890;2023-03-04T08:13:08;-0.60;99.90
26224;DHT22;14820;48.682;8.890;2023-03-04T08:15:39;-0.60;99.90
26224;DHT22;14820;48.682;8.890;2023-03-04T08:18:04;-0.50;99.90
26224;DHT22;14820;48.682;8.890;2023-03-04T08:20:33;-0.50;99.90
26224;DHT22;14820;48.682;8.890;2023-03-04T08:22:59;-0.50;99.90
26224;DHT22;14820;48.682;8.890;2023-03-04T08:25:25;-0.50;99.90
26224;DHT22;14820;48.682;8.890;2023-03-04T08:27:51;-0.50;99.90
26224;DHT22;14820;48.682;8.890;2023-03-04T08:30:20;-0.50;99.90
26224;DHT22;14820;48.682;8.890;2023-03-04T08:32:48;-0.40;99.90
26224;DHT22;14820;48.682;8.890;2023-03-04T08:35:13;-0.40;99.90
26224;DHT22;14820;48.682;8.890;2023-03-04T08:37:39;-0.40;99.90
26224;DHT22;14820;48.682;8.890;2023-03-04T08:40:05;-0.30;99.90
26224;DHT22;14820;48.682;8.890;2023-03-04T08:42:31;-0.30;99.90
26224;DHT22;14820;48.682;8.890;2023-03-04T08:44:56;-0.20;99.90
26224;DHT22;14820;48.682;8.890;2023-03-04T08:47:25;-0.20;99.90
26224;DHT22;14820;48.682;8.890;2023-03-04T08:49:54;-0.20;99.90
26224;DHT22;14820;48.682;8.890;2023-03-04T08:52:21;-0.10;99.90
26224;DHT22;14820;48.682;8.890;2023-03-04T08:54:50;-0.10;99.90
26224;DHT22;14820;48.682;8.890;2023-03-04T08:57:15;-0.10;99.90
26224;DHT22;14820;48.682;8.890;2023-03-04T08:59:41;-0.10;99.90
26224;DHT22;14820;48.682;8.890;2023-03-04T09:02:10;0.00;99.90
26224;DHT22;14820;48.682;8.890;2023-03-04T09:04:36;0.00;99.90
26224;DHT22;14820;48.682;8.890;2023-03-04T09:07:02;0.00;99.90
26224;DHT22;14820;48.682;8.890;2023-03-04T09:09:28;0.10;99.90
26224;DHT22;14820;48.682;8.890;2023-03-04T09:11:53;0.10;99.90
26224;DHT22;14820;48.682;8.890;2023-03-04T09:14:19;0.40;99.90
26224;DHT22;14820;48.682;8.890;2023-03-04T09:16:45;0.00;99.90
26224;DHT22;14820;48.682;8.890;2023-03-04T09:19:10;0.20;99.90
26224;DHT22;14820;48.682;8.890;2023-03-04T09:21:36;0.20;99.90
26224;DHT22;14820;48.682;8.890;2023-03-04T09:24:02;0.20;99.90
26224;DHT22;14820;48.682;8.890;2023-03-04T09:26:28;0.30;99.90
26224;DHT22;14820;48.682;8.890;2023-03-04T09:28:56;0.30;99.90
26224;DHT22;14820;48.682;8.890;2023-03-04T09:31:23;0.40;99.90
26224;DHT22;14820;48.682;8.890;2023-03-04T09:33:50;0.40;99.90
26224;DHT22;14820;48.682;8.890;2023-03-04T09:36:16;0.50;99.90
26224;DHT22;14820;48.682;8.890;2023-03-04T09:38:42;0.50;99.90
26224;DHT22;14820;48.682;8.890;2023-03-04T09:41:12;0.50;99.90
26224;DHT22;14820;48.682;8.890;2023-03-04T09:43:40;0.60;99.90
26224;DHT22;14820;48.682;8.890;2023-03-04T09:46:18;0.70;99.90
26224;DHT22;14820;48.682;8.890;2023-03-04T09:48:49;0.70;99.90
26224;DHT22;14820;48.682;8.890;2023-03-04T09:56:38;0.90;99.90
26224;DHT22;14820;48.682;8.890;2023-03-04T09:59:08;0.90;99.90
26224;DHT22;14820;48.682;8.890;2023-03-04T10:01:57;0.90;99.90
26224;DHT22;14820;48.682;8.890;2023-03-04T10:04:45;0.90;99.90
26224;DHT22;14820;48.682;8.890;2023-03-04T10:07:25;0.90;99.90
26224;DHT22;14820;48.682;8.890;2023-03-04T10:10:00;1.00;99.90
26224;DHT22;14820;48.682;8.890;2023-03-04T10:12:28;1.00;99.90
26224;DHT22;14820;48.682;8.890;2023-03-04T10:15:02;1.10;99.90
26224;DHT22;14820;48.682;8.890;2023-03-04T10:17:44;1.10;99.90
26224;DHT22;14820;48.682;8.890;2023-03-04T10:20:29;1.10;99.90
26224;DHT22;14820;48.682;8.890;2023-03-04T10:22:58;1.10;99.90
26224;DHT22;14820;48.682;8.890;2023-03-04T10:25:29;1.20;99.90
26224;DHT22;14820;48.682;8.890;2023-03-04T10:28:15;1.30;99.90
26224;DHT22;14820;48.682;8.890;2023-03-04T10:30:59;1.50;99.90
26224;DHT22;14820;48.682;8.890;2023-03-04T10:33:35;1.50;99.90
26224;DHT22;14820;48.682;8.890;2023-03-04T10:36:03;1.40;99.90
26224;DHT22;14820;48.682;8.890;2023-03-04T10:38:36;1.50;99.90
26224;DHT22;14820;48.682;8.890;2023-03-04T10:41:23;1.50;99.90
26224;DHT22;14820;48.682;8.890;2023-03-04T10:46:38;1.50;99.90
26224;DHT22;14820;48.682;8.890;2023-03-04T10:49:04;1.60;99.90
26224;DHT22;14820;48.682;8.890;2023-03-04T10:51:30;1.70;99.90
26224;DHT22;14820;48.682;8.890;2023-03-04T10:54:30;1.80;99.90
26224;DHT22;14820;48.682;8.890;2023-03-04T10:57:02;1.90;99.90
26224;DHT22;14820;48.682;8.890;2023-03-04T11:02:31;1.90;99.90
26224;DHT22;14820;48.682;8.890;2023-03-04T11:07:44;2.00;99.90
26224;DHT22;14820;48.682;8.890;2023-03-04T11:10:19;2.10;99.90
26224;DHT22;14820;48.682;8.890;2023-03-04T11:12:59;2.10;99.90
26224;DHT22;14820;48.682;8.890;2023-03-04T11:15:29;2.20;99.90
26224;DHT22;14820;48.682;8.890;2023-03-04T11:18:03;2.30;99.90
26224;DHT22;14820;48.682;8.890;2023-03-04T11:20:39;2.20;99.90
26224;DHT22;14820;48.682;8.890;2023-03-04T11:23:40;2.20;99.90
26224;DHT22;14820;48.682;8.890;2023-03-04T11:26:55;2.20;99.90
26224;DHT22;14820;48.682;8.890;2023-03-04T11:35:03;2.60;99.90
26224;DHT22;14820;48.682;8.890;2023-03-04T11:38:34;2.60;99.90
26224;DHT22;14820;48.682;8.890;2023-03-04T11:40:54;2.70;99.90
26224;DHT22;14820;48.682;8.890;2023-03-04T11:43:33;2.70;99.90
26224;DHT22;14820;48.682;8.890;2023-03-04T11:52:18;2.80;99.90
26224;DHT22;14820;48.682;8.890;2023-03-04T11:57:50;2.80;99.90
26224;DHT22;14820;48.682;8.890;2023-03-04T12:05:57;2.80;99.90
26224;DHT22;14820;48.682;8.890;2023-03-04T12:11:18;2.80;99.90
26224;DHT22;14820;48.682;8.890;2023-03-04T12:14:12;2.90;99.90
26224;DHT22;14820;48.682;8.890;2023-03-04T12:22:39;2.90;99.90
26224;DHT22;14820;48.682;8.890;2023-03-04T12:44:15;3.40;99.90
26224;DHT22;14820;48.682;8.890;2023-03-04T12:53:14;3.70;99.90
26224;DHT22;14820;48.682;8.890;2023-03-04T12:55:44;3.80;99.90
26224;DHT22;14820;48.682;8.890;2023-03-04T12:58:15;3.80;99.90
26224;DHT22;14820;48.682;8.890;2023-03-04T13:06:18;3.80;99.90
26224;DHT22;14820;48.682;8.890;2023-03-04T13:09:02;3.70;99.90
26224;DHT22;14820;48.682;8.890;2023-03-04T13:11:38;3.80;99.90
26224;DHT22;14820;48.682;8.890;2023-03-04T13:14:27;3.70;99.90
26224;DHT22;14820;48.682;8.890;2023-03-04T13:16:58;3.70;99.90
26224;DHT22;14820;48.682;8.890;2023-03-04T13:22:44;3.80;99.90
26224;DHT22;14820;48.682;8.890;2023-03-04T13:35:58;3.80;99.90
26224;DHT22;14820;48.682;8.890;2023-03-04T13:41:23;3.80;99.90
26224;DHT22;14820;48.682;8.890;2023-03-04T13:43:53;3.80;99.90
26224;DHT22;14820;48.682;8.890;2023-03-04T13:57:20;4.00;99.90
26224;DHT22;14820;48.682;8.890;2023-03-04T13:59:53;4.30;99.90
26224;DHT22;14820;48.682;8.890;2023-03-04T14:02:21;4.20;99.90
26224;DHT22;14820;48.682;8.890;2023-03-04T14:07:25;4.30;99.90
26224;DHT22;14820;48.682;8.890;2023-03-04T14:12:29;4.20;99.90
26224;DHT22;14820;48.682;8.890;2023-03-04T14:15:16;4.10;99.90
26224;DHT22;14820;48.682;8.890;2023-03-04T14:17:49;4.00;99.90
26224;DHT22;14820;48.682;8.890;2023-03-04T14:20:34;4.00;99.90
26224;DHT22;14820;48.682;8.890;2023-03-04T14:23:02;4.00;99.90
26224;DHT22;14820;48.682;8.890;2023-03-04T14:25:29;4.00;99.90
26224;DHT22;14820;48.682;8.890;2023-03-04T14:30:36;3.90;99.90
26224;DHT22;14820;48.682;8.890;2023-03-04T14:33:06;4.00;99.90
26224;DHT22;14820;48.682;8.890;2023-03-04T14:35:33;4.00;99.90
26224;DHT22;14820;48.682;8.890;2023-03-04T14:38:31;4.00;99.90
26224;DHT22;14820;48.682;8.890;2023-03-04T14:41:41;4.00;99.90
26224;DHT22;14820;48.682;8.890;2023-03-04T14:43:58;3.90;99.90
26224;DHT22;14820;48.682;8.890;2023-03-04T14:46:29;4.00;99.90
26224;DHT22;14820;48.682;8.890;2023-03-04T14:48:57;3.90;99.90
26224;DHT22;14820;48.682;8.890;2023-03-04T14:51:29;3.90;99.90
26224;DHT22;14820;48.682;8.890;2023-03-04T14:53:56;4.00;99.90
26224;DHT22;14820;48.682;8.890;2023-03-04T14:56:29;4.00;99.90
26224;DHT22;14820;48.682;8.890;2023-03-04T14:58:57;3.80;99.90
26224;DHT22;14820;48.682;8.890;2023-03-04T15:01:32;3.70;99.90
26224;DHT22;14820;48.682;8.890;2023-03-04T15:04:07;3.50;99.90
26224;DHT22;14820;48.682;8.890;2023-03-04T15:06:36;3.40;99.90
26224;DHT22;14820;48.682;8.890;2023-03-04T15:09:28;3.30;99.90
26224;DHT22;14820;48.682;8.890;2023-03-04T15:12:03;3.20;99.90
26224;DHT22;14820;48.682;8.890;2023-03-04T15:14:54;3.30;99.90
26224;DHT22;14820;48.682;8.890;2023-03-04T15:17:31;3.30;99.90
26224;DHT22;14820;48.682;8.890;2023-03-04T15:22:34;3.30;99.90
26224;DHT22;14820;48.682;8.890;2023-03-04T15:25:00;3.20;99.90
26224;DHT22;14820;48.682;8.890;2023-03-04T15:27:27;3.10;99.90
26224;DHT22;14820;48.682;8.890;2023-03-04T15:29:56;3.20;99.90
26224;DHT22;14820;48.682;8.890;2023-03-04T15:32:24;3.10;99.90
26224;DHT22;14820;48.682;8.890;2023-03-04T15:34:50;3.10;99.90
26224;DHT22;14820;48.682;8.890;2023-03-04T15:37:25;3.20;99.90
26224;DHT22;14820;48.682;8.890;2023-03-04T15:39:54;3.10;99.90
26224;DHT22;14820;48.682;8.890;2023-03-04T15:42:21;3.00;99.90
26224;DHT22;14820;48.682;8.890;2023-03-04T15:44:47;3.00;99.90
26224;DHT22;14820;48.682;8.890;2023-03-04T15:47:13;3.00;99.90
26224;DHT22;14820;48.682;8.890;2023-03-04T15:49:40;3.00;99.90
26224;DHT22;14820;48.682;8.890;2023-03-04T15:52:10;3.00;99.90
26224;DHT22;14820;48.682;8.890;2023-03-04T15:54:37;2.90;99.90
26224;DHT22;14820;48.682;8.890;2023-03-04T15:57:19;2.90;99.90
26224;DHT22;14820;48.682;8.890;2023-03-04T15:59:49;2.90;99.90
26224;DHT22;14820;48.682;8.890;2023-03-04T16:02:19;2.90;99.90
26224;DHT22;14820;48.682;8.890;2023-03-04T16:04:45;2.90;99.90
26224;DHT22;14820;48.682;8.890;2023-03-04T16:07:19;2.80;99.90
26224;DHT22;14820;48.682;8.890;2023-03-04T16:09:51;2.80;99.90
26224;DHT22;14820;48.682;8.890;2023-03-04T16:12:18;2.80;99.90
26224;DHT22;14820;48.682;8.890;2023-03-04T16:14:45;2.70;99.90
26224;DHT22;14820;48.682;8.890;2023-03-04T16:17:11;2.70;99.90
26224;DHT22;14820;48.682;8.890;2023-03-04T16:19:40;2.60;99.90
26224;DHT22;14820;48.682;8.890;2023-03-04T16:22:06;2.70;99.90
26224;DHT22;14820;48.682;8.890;2023-03-04T16:24:33;2.60;99.90
26224;DHT22;14820;48.682;8.890;2023-03-04T16:26:59;2.60;99.90
26224;DHT22;14820;48.682;8.890;2023-03-04T16:29:28;2.70;99.90
26224;DHT22;14820;48.682;8.890;2023-03-04T16:31:56;2.70;99.90
26224;DHT22;14820;48.682;8.890;2023-03-04T16:34:22;2.70;99.90
26224;DHT22;14820;48.682;8.890;2023-03-04T16:36:47;2.70;99.90
26224;DHT22;14820;48.682;8.890;2023-03-04T16:39:21;2.70;99.90
26224;DHT22;14820;48.682;8.890;2023-03-04T16:41:48;2.60;99.90
26224;DHT22;14820;48.682;8.890;2023-03-04T16:44:14;2.60;99.90
26224;DHT22;14820;48.682;8.890;2023-03-04T16:46:40;2.50;99.90
26224;DHT22;14820;48.682;8.890;2023-03-04T16:49:06;2.50;99.90
26224;DHT22;14820;48.682;8.890;2023-03-04T16:51:48;2.50;99.90
26224;DHT22;14820;48.682;8.890;2023-03-04T16:54:26;2.50;99.90
26224;DHT22;14820;48.682;8.890;2023-03-04T16:56:52;2.50;99.90
26224;DHT22;14820;48.682;8.890;2023-03-04T16:59:18;2.60;99.90
26224;DHT22;14820;48.682;8.890;2023-03-04T17:01:46;2.50;99.90
26224;DHT22;14820;48.682;8.890;2023-03-04T17:04:12;2.50;99.90
26224;DHT22;14820;48.682;8.890;2023-03-04T17:06:38;2.50;99.90
26224;DHT22;14820;48.682;8.890;2023-03-04T17:09:07;2.60;99.90
26224;DHT22;14820;48.682;8.890;2023-03-04T17:11:34;2.60;99.90
26224;DHT22;14820;48.682;8.890;2023-03-04T17:14:00;2.60;99.90
26224;DHT22;14820;48.682;8.890;2023-03-04T17:16:26;2.60;99.90
26224;DHT22;14820;48.682;8.890;2023-03-04T17:18:55;2.60;99.90
26224;DHT22;14820;48.682;8.890;2023-03-04T17:21:24;2.60;99.90
26224;DHT22;14820;48.682;8.890;2023-03-04T17:23:53;2.50;99.90
26224;DHT22;14820;48.682;8.890;2023-03-04T17:26:20;2.50;99.90
26224;DHT22;14820;48.682;8.890;2023-03-04T17:28:48;2.60;99.90
26224;DHT22;14820;48.682;8.890;2023-03-04T17:31:15;2.50;99.90
26224;DHT22;14820;48.682;8.890;2023-03-04T17:33:42;2.60;99.90
26224;DHT22;14820;48.682;8.890;2023-03-04T17:36:13;2.60;99.90
26224;DHT22;14820;48.682;8.890;2023-03-04T17:38:42;2.50;99.90
26224;DHT22;14820;48.682;8.890;2023-03-04T17:41:11;2.50;99.90
26224;DHT22;14820;48.682;8.890;2023-03-04T17:43:47;2.50;99.90
26224;DHT22;14820;48.682;8.890;2023-03-04T17:46:14;2.50;99.90
26224;DHT22;14820;48.682;8.890;2023-03-04T17:48:40;2.50;99.90
26224;DHT22;14820;48.682;8.890;2023-03-04T17:51:06;2.50;99.90
26224;DHT22;14820;48.682;8.890;2023-03-04T17:53:31;2.50;99.90
26224;DHT22;14820;48.682;8.890;2023-03-04T17:56:00;2.50;99.90
26224;DHT22;14820;48.682;8.890;2023-03-04T17:58:27;2.50;99.90
26224;DHT22;14820;48.682;8.890;2023-03-04T18:01:10;2.50;99.90
26224;DHT22;14820;48.682;8.890;2023-03-04T18:03:39;2.50;99.90
26224;DHT22;14820;48.682;8.890;2023-03-04T18:06:05;2.40;99.90
26224;DHT22;14820;48.682;8.890;2023-03-04T18:08:30;2.40;99.90
26224;DHT22;14820;48.682;8.890;2023-03-04T18:10:56;2.50;99.90
26224;DHT22;14820;48.682;8.890;2023-03-04T18:13:22;2.50;99.90
26224;DHT22;14820;48.682;8.890;2023-03-04T18:15:47;2.50;99.90
26224;DHT22;14820;48.682;8.890;2023-03-04T18:18:13;2.50;99.90
26224;DHT22;14820;48.682;8.890;2023-03-04T18:20:38;2.50;99.90
26224;DHT22;14820;48.682;8.890;2023-03-04T18:23:04;2.50;99.90
26224;DHT22;14820;48.682;8.890;2023-03-04T18:25:30;2.40;99.90
26224;DHT22;14820;48.682;8.890;2023-03-04T18:27:56;2.50;99.90
26224;DHT22;14820;48.682;8.890;2023-03-04T18:30:22;2.40;99.90
26224;DHT22;14820;48.682;8.890;2023-03-04T18:32:52;2.40;99.90
26224;DHT22;14820;48.682;8.890;2023-03-04T18:35:19;2.40;99.90
26224;DHT22;14820;48.682;8.890;2023-03-04T18:37:46;2.40;99.90
26224;DHT22;14820;48.682;8.890;2023-03-04T18:40:13;2.40;99.90
26224;DHT22;14820;48.682;8.890;2023-03-04T18:42:39;2.40;99.90
26224;DHT22;14820;48.682;8.890;2023-03-04T18:45:05;2.40;99.90